sensor_id;sensor_type;location;lat;lon;timestamp;pressure;altitude;pressure_sealevel;temperature;humidity
66176;BME280;52977;44.816;20.538;2023-02-20T00:01:28;100292.63;;;10.37;71.94
66176;BME280;52977;44.816;20.538;2023-02-20T00:03:55;100364.72;;;10.87;72.01
66176;BME280;52977;44.816;20.538;2023-02-20T00:06:21;100334.16;;;10.48;72.62
66176;BME280;52977;44.816;20.538;2023-02-20T00:08:46;100334.34;;;10.24;73.71
66176;BME280;52977;44.816;20.538;2023-02-20T00:11:12;100400.78;;;10.61;73.53
66176;BME280;52977;44.816;20.538;2023-02-20T00:13:37;100398.44;;;10.54;74.12
66176;BME280;52977;44.816;20.538;2023-02-20T00:16:03;100407.66;;;10.58;74.77
66176;BME280;52977;44.816;20.538;2023-02-20T00:18:29;100401.78;;;10.51;73.92
66176;BME280;52977;44.816;20.538;2023-02-20T00:20:55;100426.16;;;10.48;74.82
66176;BME280;52977;44.816;20.538;2023-02-20T00:23:20;100405.72;;;10.31;75.47
66176;BME280;52977;44.816;20.538;2023-02-20T00:25:46;100368.22;;;10.09;73.07
66176;BME280;52977;44.816;20.538;2023-02-20T00:28:13;100412.88;;;10.13;73.05
66176;BME280;52977;44.816;20.538;2023-02-20T00:30:39;100356.25;;;9.63;71.34
66176;BME280;52977;44.816;20.538;2023-02-20T00:33:05;100422.34;;;10.02;70.54
66176;BME280;52977;44.816;20.538;2023-02-20T00:35:31;100374.03;;;9.41;68.71
66176;BME280;52977;44.816;20.538;2023-02-20T00:37:58;100443.63;;;9.86;68.20
66176;BME280;52977;44.816;20.538;2023-02-20T00:40:24;100450.16;;;9.71;68.74
66176;BME280;52977;44.816;20.538;2023-02-20T00:42:51;100439.88;;;9.82;67.34
66176;BME280;52977;44.816;20.538;2023-02-20T00:45:18;100435.41;;;9.72;66.84
66176;BME280;52977;44.816;20.538;2023-02-20T00:47:45;100438.09;;;9.58;65.91
66176;BME280;52977;44.816;20.538;2023-02-20T00:50:13;100441.72;;;9.34;66.48
66176;BME280;52977;44.816;20.538;2023-02-20T00:52:41;100399.63;;;9.07;64.52
66176;BME280;52977;44.816;20.538;2023-02-20T00:55:07;100445.06;;;9.31;65.52
66176;BME280;52977;44.816;20.538;2023-02-20T00:57:34;100467.44;;;9.28;64.41
66176;BME280;52977;44.816;20.538;2023-02-20T01:00:00;100448.72;;;9.21;63.83
66176;BME280;52977;44.816;20.538;2023-02-20T01:02:27;100410.69;;;8.97;63.04
66176;BME280;52977;44.816;20.538;2023-02-20T01:04:53;100400.41;;;8.70;62.54
66176;BME280;52977;44.816;20.538;2023-02-20T01:07:21;100449.06;;;8.96;63.52
66176;BME280;52977;44.816;20.538;2023-02-20T01:09:47;100476.56;;;9.18;63.19
66176;BME280;52977;44.816;20.538;2023-02-20T01:12:15;100473.41;;;9.11;63.73
66176;BME280;52977;44.816;20.538;2023-02-20T01:14:42;100478.03;;;9.11;63.31
66176;BME280;52977;44.816;20.538;2023-02-20T01:17:08;100383.47;;;8.30;63.90
66176;BME280;52977;44.816;20.538;2023-02-20T01:19:34;100468.63;;;8.79;64.60
66176;BME280;52977;44.816;20.538;2023-02-20T01:22:00;100412.16;;;8.46;64.38
66176;BME280;52977;44.816;20.538;2023-02-20T01:24:27;100400.13;;;8.23;64.18
66176;BME280;52977;44.816;20.538;2023-02-20T01:26:53;100448.44;;;8.61;64.86
66176;BME280;52977;44.816;20.538;2023-02-20T01:29:20;100489.94;;;8.71;64.84
66176;BME280;52977;44.816;20.538;2023-02-20T01:31:50;100501.53;;;8.58;65.13
66176;BME280;52977;44.816;20.538;2023-02-20T01:34:18;100504.78;;;8.60;65.25
66176;BME280;52977;44.816;20.538;2023-02-20T01:36:52;100499.91;;;8.57;64.84
66176;BME280;52977;44.816;20.538;2023-02-20T01:39:25;100463.72;;;8.27;65.04
66176;BME280;52977;44.816;20.538;2023-02-20T01:41:55;100510.41;;;8.39;65.72
66176;BME280;52977;44.816;20.538;2023-02-20T01:44:31;100502.63;;;8.28;66.19
66176;BME280;52977;44.816;20.538;2023-02-20T01:47:00;100462.00;;;8.12;67.02
66176;BME280;52977;44.816;20.538;2023-02-20T01:52:09;100471.75;;;8.13;67.78
66176;BME280;52977;44.816;20.538;2023-02-20T01:54:38;100499.03;;;8.32;68.27
66176;BME280;52977;44.816;20.538;2023-02-20T01:57:07;100510.47;;;8.34;68.56
66176;BME280;52977;44.816;20.538;2023-02-20T01:59:37;100517.59;;;8.30;69.49
66176;BME280;52977;44.816;20.538;2023-02-20T02:02:05;100486.75;;;8.11;69.40
66176;BME280;52977;44.816;20.538;2023-02-20T02:04:33;100531.38;;;8.39;69.25
66176;BME280;52977;44.816;20.538;2023-02-20T02:07:01;100450.53;;;7.86;68.83
66176;BME280;52977;44.816;20.538;2023-02-20T02:09:50;100542.56;;;8.32;69.06
66176;BME280;52977;44.816;20.538;2023-02-20T02:12:18;100542.09;;;8.25;69.63
66176;BME280;52977;44.816;20.538;2023-02-20T02:14:44;100554.34;;;8.23;69.40
66176;BME280;52977;44.816;20.538;2023-02-20T02:25:57;100515.03;;;7.75;68.97
66176;BME280;52977;44.816;20.538;2023-02-20T02:31:35;100584.81;;;7.90;68.86
66176;BME280;52977;44.816;20.538;2023-02-20T02:40:02;100578.31;;;7.81;68.00
66176;BME280;52977;44.816;20.538;2023-02-20T02:45:27;100567.16;;;7.82;68.25
66176;BME280;52977;44.816;20.538;2023-02-20T02:47:56;100570.47;;;7.74;68.89
66176;BME280;52977;44.816;20.538;2023-02-20T02:50:45;100550.63;;;7.79;69.59
66176;BME280;52977;44.816;20.538;2023-02-20T02:53:13;100466.50;;;7.18;68.92
66176;BME280;52977;44.816;20.538;2023-02-20T02:55:40;100550.78;;;7.53;69.32
66176;BME280;52977;44.816;20.538;2023-02-20T02:58:07;100564.28;;;7.68;69.38
66176;BME280;52977;44.816;20.538;2023-02-20T03:00:38;100530.19;;;7.42;70.12
66176;BME280;52977;44.816;20.538;2023-02-20T03:03:24;100575.97;;;7.69;69.59
66176;BME280;52977;44.816;20.538;2023-02-20T03:05:57;100573.28;;;7.59;70.06
66176;BME280;52977;44.816;20.538;2023-02-20T03:11:19;100593.38;;;7.63;70.27
66176;BME280;52977;44.816;20.538;2023-02-20T03:13:51;100586.59;;;7.60;70.32
66176;BME280;52977;44.816;20.538;2023-02-20T03:19:35;100497.84;;;7.00;69.20
66176;BME280;52977;44.816;20.538;2023-02-20T03:22:06;100624.34;;;7.67;68.29
66176;BME280;52977;44.816;20.538;2023-02-20T03:24:37;100627.31;;;7.70;68.17
66176;BME280;52977;44.816;20.538;2023-02-20T03:27:40;100623.28;;;7.63;68.05
66176;BME280;52977;44.816;20.538;2023-02-20T03:33:16;100582.78;;;7.61;66.22
66176;BME280;52977;44.816;20.538;2023-02-20T03:36:05;100519.22;;;7.17;64.84
66176;BME280;52977;44.816;20.538;2023-02-20T03:39:06;100606.94;;;7.73;65.32
66176;BME280;52977;44.816;20.538;2023-02-20T03:41:52;100639.19;;;7.85;64.47
66176;BME280;52977;44.816;20.538;2023-02-20T03:44:43;100653.34;;;7.82;64.50
66176;BME280;52977;44.816;20.538;2023-02-20T03:47:17;100646.84;;;7.78;65.26
66176;BME280;52977;44.816;20.538;2023-02-20T03:49:44;100559.03;;;7.32;64.66
66176;BME280;52977;44.816;20.538;2023-02-20T03:52:14;100643.53;;;7.86;63.78
66176;BME280;52977;44.816;20.538;2023-02-20T03:54:41;100656.78;;;7.98;63.31
66176;BME280;52977;44.816;20.538;2023-02-20T03:57:12;100591.63;;;7.32;62.88
66176;BME280;52977;44.816;20.538;2023-02-20T03:59:54;100635.47;;;7.70;62.71
66176;BME280;52977;44.816;20.538;2023-02-20T04:02:30;100575.09;;;7.24;62.87
66176;BME280;52977;44.816;20.538;2023-02-20T04:05:06;100633.91;;;7.59;62.24
66176;BME280;52977;44.816;20.538;2023-02-20T04:07:40;100657.78;;;7.62;62.25
66176;BME280;52977;44.816;20.538;2023-02-20T04:10:14;100588.72;;;7.13;61.45
66176;BME280;52977;44.816;20.538;2023-02-20T04:12:44;100642.16;;;7.33;61.36
66176;BME280;52977;44.816;20.538;2023-02-20T04:15:14;100632.13;;;7.24;61.61
66176;BME280;52977;44.816;20.538;2023-02-20T04:17:54;100641.91;;;7.25;61.48
66176;BME280;52977;44.816;20.538;2023-02-20T04:20:21;100645.94;;;7.32;61.67
66176;BME280;52977;44.816;20.538;2023-02-20T04:23:02;100557.34;;;6.81;61.91
66176;BME280;52977;44.816;20.538;2023-02-20T04:25:41;100615.88;;;7.13;62.49
66176;BME280;52977;44.816;20.538;2023-02-20T04:28:10;100658.44;;;7.33;62.02
66176;BME280;52977;44.816;20.538;2023-02-20T04:30:49;100660.88;;;7.40;62.87
66176;BME280;52977;44.816;20.538;2023-02-20T04:33:16;100676.06;;;7.46;62.83
66176;BME280;52977;44.816;20.538;2023-02-20T04:35:43;100563.63;;;6.66;61.91
66176;BME280;52977;44.816;20.538;2023-02-20T04:38:10;100643.31;;;7.07;61.43
66176;BME280;52977;44.816;20.538;2023-02-20T04:40:37;100654.69;;;7.14;62.20
66176;BME280;52977;44.816;20.538;2023-02-20T04:43:04;100672.63;;;7.10;61.65
66176;BME280;52977;44.816;20.538;2023-02-20T04:45:31;100583.97;;;6.64;61.57
66176;BME280;52977;44.816;20.538;2023-02-20T04:47:57;100671.00;;;7.24;60.86
66176;BME280;52977;44.816;20.538;2023-02-20T04:50:26;100601.03;;;6.80;61.08
66176;BME280;52977;44.816;20.538;2023-02-20T04:52:54;100653.09;;;6.97;60.76
66176;BME280;52977;44.816;20.538;2023-02-20T04:55:22;100619.22;;;6.79;60.85
66176;BME280;52977;44.816;20.538;2023-02-20T04:57:51;100593.75;;;6.44;61.61
66176;BME280;52977;44.816;20.538;2023-02-20T05:00:20;100618.97;;;6.65;61.33
66176;BME280;52977;44.816;20.538;2023-02-20T05:02:47;100676.72;;;6.97;61.17
66176;BME280;52977;44.816;20.538;2023-02-20T05:05:24;100617.91;;;6.56;60.90
66176;BME280;52977;44.816;20.538;2023-02-20T05:08:01;100698.16;;;7.14;60.30
66176;BME280;52977;44.816;20.538;2023-02-20T05:10:29;100700.88;;;7.09;61.16
66176;BME280;52977;44.816;20.538;2023-02-20T05:12:55;100703.56;;;7.19;60.26
66176;BME280;52977;44.816;20.538;2023-02-20T05:15:24;100687.88;;;7.00;60.41
66176;BME280;52977;44.816;20.538;2023-02-20T05:17:50;100659.13;;;6.63;61.10
66176;BME280;52977;44.816;20.538;2023-02-20T05:20:17;100693.81;;;7.03;60.66
66176;BME280;52977;44.816;20.538;2023-02-20T05:22:47;100715.78;;;7.11;61.65
66176;BME280;52977;44.816;20.538;2023-02-20T05:25:14;100707.88;;;7.35;60.81
66176;BME280;52977;44.816;20.538;2023-02-20T05:27:40;100709.50;;;7.36;60.13
66176;BME280;52977;44.816;20.538;2023-02-20T05:30:08;100677.00;;;7.00;60.51
66176;BME280;52977;44.816;20.538;2023-02-20T05:32:34;100707.63;;;7.37;59.86
66176;BME280;52977;44.816;20.538;2023-02-20T05:35:00;100694.63;;;7.08;60.63
66176;BME280;52977;44.816;20.538;2023-02-20T05:37:27;100712.81;;;7.18;60.35
66176;BME280;52977;44.816;20.538;2023-02-20T05:39:53;100722.06;;;7.12;60.80
66176;BME280;52977;44.816;20.538;2023-02-20T05:42:19;100722.06;;;7.12;60.86
66176;BME280;52977;44.816;20.538;2023-02-20T05:44:47;100722.06;;;7.12;60.89
66176;BME280;52977;44.816;20.538;2023-02-20T05:47:15;100696.81;;;6.75;60.91
66176;BME280;52977;44.816;20.538;2023-02-20T05:49:41;100670.53;;;6.60;61.12
66176;BME280;52977;44.816;20.538;2023-02-20T05:52:08;100726.94;;;7.15;61.30
66176;BME280;52977;44.816;20.538;2023-02-20T05:54:38;100725.03;;;7.21;60.67
66176;BME280;52977;44.816;20.538;2023-02-20T05:57:05;100737.81;;;7.20;60.67
66176;BME280;52977;44.816;20.538;2023-02-20T05:59:31;100724.47;;;7.18;60.15
66176;BME280;52977;44.816;20.538;2023-02-20T06:01:58;100743.22;;;7.20;61.25
66176;BME280;52977;44.816;20.538;2023-02-20T06:04:25;100596.50;;;6.19;60.63
66176;BME280;52977;44.816;20.538;2023-02-20T06:06:52;100743.22;;;7.15;60.71
66176;BME280;52977;44.816;20.538;2023-02-20T06:09:18;100690.31;;;6.92;60.04
66176;BME280;52977;44.816;20.538;2023-02-20T06:11:50;100751.94;;;7.12;61.27
66176;BME280;52977;44.816;20.538;2023-02-20T06:14:18;100749.50;;;7.10;61.62
66176;BME280;52977;44.816;20.538;2023-02-20T06:16:50;100752.19;;;7.05;60.90
66176;BME280;52977;44.816;20.538;2023-02-20T06:19:22;100715.56;;;6.87;60.59
66176;BME280;52977;44.816;20.538;2023-02-20T06:21:49;100759.28;;;6.91;61.95
66176;BME280;52977;44.816;20.538;2023-02-20T06:24:16;100763.34;;;7.04;61.51
66176;BME280;52977;44.816;20.538;2023-02-20T06:26:43;100670.53;;;6.45;60.74
66176;BME280;52977;44.816;20.538;2023-02-20T06:29:10;100655.88;;;6.25;61.26
66176;BME280;52977;44.816;20.538;2023-02-20T06:31:36;100713.66;;;6.57;61.64
66176;BME280;52977;44.816;20.538;2023-02-20T06:34:02;100742.16;;;6.95;60.96
66176;BME280;52977;44.816;20.538;2023-02-20T06:36:30;100772.53;;;7.13;61.55
66176;BME280;52977;44.816;20.538;2023-02-20T06:38:57;100695.50;;;6.57;61.62
66176;BME280;52977;44.816;20.538;2023-02-20T06:41:22;100765.50;;;7.12;61.09
66176;BME280;52977;44.816;20.538;2023-02-20T06:43:48;100694.13;;;6.55;61.83
66176;BME280;52977;44.816;20.538;2023-02-20T06:46:14;100761.72;;;6.92;61.68
66176;BME280;52977;44.816;20.538;2023-02-20T06:48:47;100792.06;;;7.41;61.04
66176;BME280;52977;44.816;20.538;2023-02-20T06:51:22;100787.19;;;7.43;60.37
66176;BME280;52977;44.816;20.538;2023-02-20T06:53:48;100808.13;;;7.32;60.71
66176;BME280;52977;44.816;20.538;2023-02-20T06:56:16;100809.47;;;7.34;60.89
66176;BME280;52977;44.816;20.538;2023-02-20T06:58:51;100769.81;;;7.13;60.08
66176;BME280;52977;44.816;20.538;2023-02-20T07:01:19;100780.69;;;7.18;60.26
66176;BME280;52977;44.816;20.538;2023-02-20T07:03:47;100771.47;;;7.14;59.63
66176;BME280;52977;44.816;20.538;2023-02-20T07:06:18;100718.00;;;6.78;60.55
66176;BME280;52977;44.816;20.538;2023-02-20T07:08:44;100717.44;;;6.92;62.45
66176;BME280;52977;44.816;20.538;2023-02-20T07:11:11;100688.16;;;6.63;60.76
66176;BME280;52977;44.816;20.538;2023-02-20T07:13:38;100801.59;;;7.28;61.01
66176;BME280;52977;44.816;20.538;2023-02-20T07:16:05;100805.69;;;7.30;60.60
66176;BME280;52977;44.816;20.538;2023-02-20T07:18:31;100797.50;;;7.41;59.97
66176;BME280;52977;44.816;20.538;2023-02-20T07:20:57;100809.72;;;7.43;60.30
66176;BME280;52977;44.816;20.538;2023-02-20T07:23:23;100791.81;;;6.96;61.25
66176;BME280;52977;44.816;20.538;2023-02-20T07:25:50;100816.53;;;7.35;60.07
66176;BME280;52977;44.816;20.538;2023-02-20T07:28:17;100791.53;;;7.39;59.00
66176;BME280;52977;44.816;20.538;2023-02-20T07:30:44;100733.75;;;6.81;59.15
66176;BME280;52977;44.816;20.538;2023-02-20T07:33:11;100738.91;;;6.73;57.75
66176;BME280;52977;44.816;20.538;2023-02-20T07:35:37;100770.66;;;6.82;57.89
66176;BME280;52977;44.816;20.538;2023-02-20T07:38:05;100688.91;;;6.12;58.00
66176;BME280;52977;44.816;20.538;2023-02-20T07:40:32;100801.06;;;7.00;58.66
66176;BME280;52977;44.816;20.538;2023-02-20T07:42:58;100805.41;;;7.01;58.73
66176;BME280;52977;44.816;20.538;2023-02-20T07:45:27;100655.50;;;5.91;59.04
66176;BME280;52977;44.816;20.538;2023-02-20T07:47:54;100803.75;;;6.95;59.50
66176;BME280;52977;44.816;20.538;2023-02-20T07:50:20;100819.53;;;6.98;59.41
66176;BME280;52977;44.816;20.538;2023-02-20T07:52:47;100804.59;;;6.95;58.73
66176;BME280;52977;44.816;20.538;2023-02-20T07:55:17;100819.25;;;7.05;57.71
66176;BME280;52977;44.816;20.538;2023-02-20T07:57:47;100782.59;;;6.81;58.43
66176;BME280;52977;44.816;20.538;2023-02-20T08:00:16;100770.94;;;6.81;58.49
66176;BME280;52977;44.816;20.538;2023-02-20T08:02:43;100727.22;;;6.57;58.78
66176;BME280;52977;44.816;20.538;2023-02-20T08:05:09;100818.72;;;7.23;58.15
66176;BME280;52977;44.816;20.538;2023-02-20T08:07:36;100804.84;;;7.19;58.75
66176;BME280;52977;44.816;20.538;2023-02-20T08:10:04;100813.56;;;7.22;57.74
66176;BME280;52977;44.816;20.538;2023-02-20T08:12:30;100722.34;;;6.90;57.92
66176;BME280;52977;44.816;20.538;2023-02-20T08:14:56;100816.50;;;7.61;55.63
66176;BME280;52977;44.816;20.538;2023-02-20T08:17:23;100820.59;;;7.48;54.60
66176;BME280;52977;44.816;20.538;2023-02-20T08:19:49;100812.72;;;7.42;55.14
66176;BME280;52977;44.816;20.538;2023-02-20T08:22:15;100748.66;;;7.05;54.99
66176;BME280;52977;44.816;20.538;2023-02-20T08:24:41;100748.09;;;7.13;55.05
66176;BME280;52977;44.816;20.538;2023-02-20T08:27:07;100756.53;;;7.16;55.53
66176;BME280;52977;44.816;20.538;2023-02-20T08:29:34;100827.31;;;7.77;55.02
66176;BME280;52977;44.816;20.538;2023-02-20T08:32:00;100752.72;;;7.33;55.03
66176;BME280;52977;44.816;20.538;2023-02-20T08:34:26;100828.69;;;7.84;54.42
66176;BME280;52977;44.816;20.538;2023-02-20T08:36:53;100790.41;;;7.60;54.98
66176;BME280;52977;44.816;20.538;2023-02-20T08:39:19;100746.75;;;7.21;55.36
66176;BME280;52977;44.816;20.538;2023-02-20T08:41:46;100833.06;;;7.65;55.49
66176;BME280;52977;44.816;20.538;2023-02-20T08:44:13;100754.63;;;7.27;55.15
66176;BME280;52977;44.816;20.538;2023-02-20T08:46:50;100724.22;;;7.15;55.01
66176;BME280;52977;44.816;20.538;2023-02-20T08:49:17;100799.91;;;7.63;55.77
66176;BME280;52977;44.816;20.538;2023-02-20T08:51:44;100817.84;;;7.64;55.83
66176;BME280;52977;44.816;20.538;2023-02-20T08:54:11;100739.44;;;7.11;56.07
66176;BME280;52977;44.816;20.538;2023-02-20T08:56:37;100789.06;;;7.58;55.82
66176;BME280;52977;44.816;20.538;2023-02-20T08:59:04;100827.56;;;8.01;55.29
66176;BME280;52977;44.816;20.538;2023-02-20T09:01:30;100774.03;;;7.81;53.45
66176;BME280;52977;44.816;20.538;2023-02-20T09:03:56;100770.22;;;7.87;53.05
66176;BME280;52977;44.816;20.538;2023-02-20T09:06:22;100815.25;;;8.09;52.57
66176;BME280;52977;44.816;20.538;2023-02-20T09:08:54;100810.84;;;8.23;51.87
66176;BME280;52977;44.816;20.538;2023-02-20T09:11:20;100801.38;;;8.10;51.38
66176;BME280;52977;44.816;20.538;2023-02-20T09:13:47;100773.47;;;7.89;51.87
66176;BME280;52977;44.816;20.538;2023-02-20T09:16:17;100828.28;;;8.22;51.45
66176;BME280;52977;44.816;20.538;2023-02-20T09:18:44;100824.28;;;8.04;51.91
66176;BME280;52977;44.816;20.538;2023-02-20T09:21:12;100834.53;;;8.17;52.22
66176;BME280;52977;44.816;20.538;2023-02-20T09:23:39;100787.34;;;7.87;51.83
66176;BME280;52977;44.816;20.538;2023-02-20T09:26:06;100796.06;;;7.84;51.40
66176;BME280;52977;44.816;20.538;2023-02-20T09:28:32;100838.03;;;8.23;51.08
66176;BME280;52977;44.816;20.538;2023-02-20T09:30:58;100834.25;;;8.24;51.57
66176;BME280;52977;44.816;20.538;2023-02-20T09:33:26;100803.22;;;8.30;53.59
66176;BME280;52977;44.816;20.538;2023-02-20T09:35:54;100790.88;;;8.48;50.98
66176;BME280;52977;44.816;20.538;2023-02-20T09:38:21;100817.66;;;8.76;51.53
66176;BME280;52977;44.816;20.538;2023-02-20T09:40:57;100797.84;;;8.65;51.11
66176;BME280;52977;44.816;20.538;2023-02-20T09:43:35;100819.34;;;8.66;51.93
66176;BME280;52977;44.816;20.538;2023-02-20T09:46:14;100843.72;;;8.87;51.84
66176;BME280;52977;44.816;20.538;2023-02-20T09:51:34;100748.19;;;8.38;52.16
66176;BME280;52977;44.816;20.538;2023-02-20T09:56:37;100843.13;;;8.95;52.10
66176;BME280;52977;44.816;20.538;2023-02-20T09:59:13;100850.66;;;9.09;50.33
66176;BME280;52977;44.816;20.538;2023-02-20T10:01:52;100803.59;;;8.63;48.86
66176;BME280;52977;44.816;20.538;2023-02-20T10:04:24;100709.50;;;8.02;50.02
66176;BME280;52977;44.816;20.538;2023-02-20T10:06:54;100792.03;;;8.82;49.90
66176;BME280;52977;44.816;20.538;2023-02-20T10:09:22;100690.06;;;8.29;49.71
66176;BME280;52977;44.816;20.538;2023-02-20T10:11:55;100824.00;;;9.35;47.72
66176;BME280;52977;44.816;20.538;2023-02-20T10:14:44;100819.47;;;9.25;47.80
66176;BME280;52977;44.816;20.538;2023-02-20T10:22:38;100802.19;;;9.35;46.15
66176;BME280;52977;44.816;20.538;2023-02-20T10:25:22;100819.50;;;9.54;45.84
66176;BME280;52977;44.816;20.538;2023-02-20T10:27:52;100811.78;;;9.62;45.80
66176;BME280;52977;44.816;20.538;2023-02-20T10:30:41;100776.84;;;9.39;46.64
66176;BME280;52977;44.816;20.538;2023-02-20T10:36:03;100817.16;;;9.37;46.75
66176;BME280;52977;44.816;20.538;2023-02-20T10:38:41;100785.84;;;9.35;46.91
66176;BME280;52977;44.816;20.538;2023-02-20T10:43:58;100768.84;;;9.48;45.89
66176;BME280;52977;44.816;20.538;2023-02-20T10:46:38;100741.28;;;9.50;45.33
66176;BME280;52977;44.816;20.538;2023-02-20T10:49:10;100800.38;;;9.84;46.25
66176;BME280;52977;44.816;20.538;2023-02-20T10:51:45;100769.97;;;9.71;46.21
66176;BME280;52977;44.816;20.538;2023-02-20T10:54:21;100804.22;;;10.02;45.34
66176;BME280;52977;44.816;20.538;2023-02-20T10:56:58;100782.41;;;10.02;44.84
66176;BME280;52977;44.816;20.538;2023-02-20T10:59:55;100769.06;;;10.00;44.93
66176;BME280;52977;44.816;20.538;2023-02-20T11:02:25;100780.31;;;10.18;45.04
66176;BME280;52977;44.816;20.538;2023-02-20T11:05:20;100765.47;;;10.05;44.54
66176;BME280;52977;44.816;20.538;2023-02-20T11:07:48;100762.94;;;10.08;44.79
66176;BME280;52977;44.816;20.538;2023-02-20T11:10:14;100641.69;;;9.38;45.39
66176;BME280;52977;44.816;20.538;2023-02-20T11:12:49;100724.75;;;10.08;44.45
66176;BME280;52977;44.816;20.538;2023-02-20T11:15:24;100751.66;;;10.39;44.38
66176;BME280;52977;44.816;20.538;2023-02-20T11:17:52;100736.91;;;10.40;45.09
66176;BME280;52977;44.816;20.538;2023-02-20T11:22:58;100748.34;;;10.42;44.79
66176;BME280;52977;44.816;20.538;2023-02-20T11:25:38;100721.13;;;10.56;45.23
66176;BME280;52977;44.816;20.538;2023-02-20T11:30:45;100630.47;;;10.02;44.71
66176;BME280;52977;44.816;20.538;2023-02-20T11:33:14;100721.41;;;10.88;45.41
66176;BME280;52977;44.816;20.538;2023-02-20T11:35:50;100725.03;;;10.83;45.27
66176;BME280;52977;44.816;20.538;2023-02-20T11:43:23;100678.31;;;10.52;45.46
66176;BME280;52977;44.816;20.538;2023-02-20T11:46:06;100690.28;;;10.37;46.30
66176;BME280;52977;44.816;20.538;2023-02-20T11:48:32;100710.44;;;10.41;46.67
66176;BME280;52977;44.816;20.538;2023-02-20T11:50:59;100637.63;;;9.98;46.75
66176;BME280;52977;44.816;20.538;2023-02-20T11:53:30;100670.28;;;10.03;47.18
66176;BME280;52977;44.816;20.538;2023-02-20T11:56:09;100608.66;;;9.64;47.00
66176;BME280;52977;44.816;20.538;2023-02-20T11:58:37;100677.69;;;10.41;47.08
66176;BME280;52977;44.816;20.538;2023-02-20T12:01:06;100698.00;;;10.68;47.50
66176;BME280;52977;44.816;20.538;2023-02-20T12:03:34;100685.81;;;10.93;46.71
66176;BME280;52977;44.816;20.538;2023-02-20T12:09:01;100669.44;;;10.93;46.60
66176;BME280;52977;44.816;20.538;2023-02-20T12:11:30;100660.13;;;10.94;46.58
66176;BME280;52977;44.816;20.538;2023-02-20T12:13:57;100563.16;;;10.31;46.84
66176;BME280;52977;44.816;20.538;2023-02-20T12:19:44;100674.09;;;11.34;46.14
66176;BME280;52977;44.816;20.538;2023-02-20T12:22:25;100602.63;;;10.85;46.18
66176;BME280;52977;44.816;20.538;2023-02-20T12:27:49;100663.56;;;11.69;46.30
66176;BME280;52977;44.816;20.538;2023-02-20T12:33:23;100647.13;;;11.97;46.10
66176;BME280;52977;44.816;20.538;2023-02-20T12:38:53;100638.63;;;11.85;45.83
66176;BME280;52977;44.816;20.538;2023-02-20T12:41:46;100635.59;;;12.00;45.64
66176;BME280;52977;44.816;20.538;2023-02-20T12:47:19;100628.47;;;11.99;46.25
66176;BME280;52977;44.816;20.538;2023-02-20T12:55:40;100615.53;;;11.77;47.09
66176;BME280;52977;44.816;20.538;2023-02-20T13:01:06;100618.44;;;12.08;46.86
66176;BME280;52977;44.816;20.538;2023-02-20T13:03:58;100577.97;;;12.05;46.83
66176;BME280;52977;44.816;20.538;2023-02-20T13:06:37;100608.72;;;12.47;46.57
66176;BME280;52977;44.816;20.538;2023-02-20T13:11:43;100605.91;;;12.61;46.49
66176;BME280;52977;44.816;20.538;2023-02-20T13:16:43;100583.94;;;12.30;47.32
66176;BME280;52977;44.816;20.538;2023-02-20T13:19:39;100577.13;;;12.50;47.09
66176;BME280;52977;44.816;20.538;2023-02-20T13:22:07;100578.19;;;12.40;47.30
66176;BME280;52977;44.816;20.538;2023-02-20T13:24:35;100589.03;;;12.45;47.73
66176;BME280;52977;44.816;20.538;2023-02-20T13:27:04;100580.53;;;12.56;47.99
66176;BME280;52977;44.816;20.538;2023-02-20T13:29:39;100581.44;;;12.42;48.36
66176;BME280;52977;44.816;20.538;2023-02-20T13:32:30;100567.63;;;12.47;48.29
66176;BME280;52977;44.816;20.538;2023-02-20T13:38:09;100531.03;;;12.83;47.05
66176;BME280;52977;44.816;20.538;2023-02-20T13:40:40;100566.84;;;12.87;47.18
66176;BME280;52977;44.816;20.538;2023-02-20T13:46:07;100565.44;;;12.98;47.30
66176;BME280;52977;44.816;20.538;2023-02-20T13:48:56;100547.47;;;12.83;47.27
66176;BME280;52977;44.816;20.538;2023-02-20T13:54:11;100497.47;;;12.60;47.31
66176;BME280;52977;44.816;20.538;2023-02-20T13:59:09;100510.00;;;12.21;48.76
66176;BME280;52977;44.816;20.538;2023-02-20T14:02:12;100514.91;;;12.10;48.94
66176;BME280;52977;44.816;20.538;2023-02-20T14:04:38;100541.06;;;12.48;49.16
66176;BME280;52977;44.816;20.538;2023-02-20T14:07:04;100474.66;;;11.88;49.64
66176;BME280;52977;44.816;20.538;2023-02-20T14:09:31;100498.31;;;12.07;49.28
66176;BME280;52977;44.816;20.538;2023-02-20T14:12:06;100502.25;;;12.23;49.51
66176;BME280;52977;44.816;20.538;2023-02-20T14:14:43;100518.84;;;12.50;49.03
66176;BME280;52977;44.816;20.538;2023-02-20T14:17:15;100483.53;;;12.17;49.87
66176;BME280;52977;44.816;20.538;2023-02-20T14:19:47;100495.47;;;12.43;49.42
66176;BME280;52977;44.816;20.538;2023-02-20T14:24:46;100466.97;;;12.13;49.77
66176;BME280;52977;44.816;20.538;2023-02-20T14:27:26;100476.50;;;12.24;49.68
66176;BME280;52977;44.816;20.538;2023-02-20T14:30:28;100510.63;;;12.50;49.46
66176;BME280;52977;44.816;20.538;2023-02-20T14:32:56;100445.75;;;12.19;49.96
66176;BME280;52977;44.816;20.538;2023-02-20T14:36:33;100423.34;;;12.17;50.02
66176;BME280;52977;44.816;20.538;2023-02-20T14:41:19;100480.91;;;12.74;49.55
66176;BME280;52977;44.816;20.538;2023-02-20T14:44:15;100499.97;;;12.88;49.81
66176;BME280;52977;44.816;20.538;2023-02-20T14:46:44;100474.25;;;12.67;50.14
66176;BME280;52977;44.816;20.538;2023-02-20T14:49:14;100499.66;;;12.90;49.87
66176;BME280;52977;44.816;20.538;2023-02-20T14:51:40;100501.28;;;12.91;49.81
66176;BME280;52977;44.816;20.538;2023-02-20T14:56:39;100450.78;;;12.74;49.90